Flight Track Log - Related Links

Times and Time Zones

All times are in EDT time to prevent confusion due to time zone crossing. See the N319EE flight status page for this flight to view local times or setup timezone preferences in your user account.

Time Position Orientation Groundspeed Altitude Reporting Facility
EDT Latitude Longitude Course Direction KTS MPH feet Rate Location/Type
Thu 05:46:28 PM 40.6500 -73.4833 229° Southwest 170 196 4,200  Level New York TRACON
Thu 05:48:14 PM 40.6689 -73.5867 284° West 164 189 7,800 1,689 Climbing Boston Center
Thu 05:49:15 PM 40.7083 -73.6228 325° Northwest 156 180 8,900 541 Climbing Boston Center
Thu 05:50:16 PM 40.7753 -73.5883 21° North 173 199 8,900  Level Boston Center
Thu 05:51:16 PM 40.8322 -73.5125 45° Northeast 239 275 8,900 661 Level Boston Center
Thu 05:52:14 PM 40.8892 -73.4478 41° Northeast 255 293 10,200 1,576 Climbing Boston Center
Thu 05:53:14 PM 40.9458 -73.4128 25° Northeast 242 278 12,000 1,785 Climbing Boston Center
Thu 05:54:15 PM 41.0022 -73.3806 23° Northeast 226 260 13,800 1,820 Climbing Boston Center
Thu 05:55:16 PM 41.0547 -73.3428 28° Northeast 201 231 15,700 1,587 Climbing Boston Center
Thu 05:56:16 PM 41.1092 -73.3133 22° Northeast 206 237 17,000 661 Climbing Boston Center
Thu 05:57:14 PM 41.1781 -73.2728 24° Northeast 226 260 17,000  Level Boston Center
Thu 05:58:14 PM 41.2514 -73.2269 25° Northeast 261 300 17,000  Level Boston Center
Thu 05:59:15 PM 41.3289 -73.1836 23° Northeast 285 328 17,000  Level Boston Center
Thu 06:00:15 PM 41.4061 -73.1375 24° Northeast 301 346 17,000  Level Boston Center
Thu 06:01:16 PM 41.4794 -73.0939 24° Northeast 296 341 17,000  Level Boston Center
Thu 06:02:14 PM 41.5567 -73.0475 24° Northeast 296 341 17,000  Level Boston Center
Thu 06:03:14 PM 41.6300 -73.0039 24° Northeast 296 341 17,000  Level Boston Center
Thu 06:04:15 PM 41.7031 -72.9600 24° Northeast 291 335 17,000  Level Boston Center
Thu 06:05:15 PM 41.7783 -72.9133 25° Northeast 291 335 17,000  Level Boston Center
Thu 06:06:15 PM 41.8453 -72.8747 23° Northeast 291 335 17,000  Level Boston Center
Thu 06:07:14 PM 41.9183 -72.8306 24° Northeast 291 335 17,000  Level Boston Center
Thu 06:08:14 PM 41.9914 -72.7864 24° Northeast 291 335 17,000  Level Boston Center
Thu 06:09:14 PM 42.0728 -72.7339 26° Northeast 291 335 17,000  Level Boston Center
Thu 06:10:15 PM 42.1397 -72.6947 23° Northeast 291 335 17,000  Level Boston Center
Thu 06:11:15 PM 42.2147 -72.6475 25° Northeast 296 341 17,000  Level Boston Center
Thu 06:12:16 PM 42.2981 -72.5972 24° Northeast 296 341 17,000  Level Boston Center
Thu 06:13:16 PM 42.3650 -72.5581 23° Northeast 296 341 17,000  Level Boston Center
Thu 06:14:16 PM 42.4400 -72.5075 26° Northeast 296 341 17,000  Level Boston Center
Thu 06:15:16 PM 42.5025 -72.4261 44° Northeast 302 348 17,000  Level Boston Center
Thu 06:16:14 PM 42.5650 -72.3442 44° Northeast 302 348 17,000  Level Boston Center
Thu 06:17:15 PM 42.6317 -72.2539 45° Northeast 302 348 17,000  Level Boston Center
Thu 06:18:16 PM 42.6919 -72.1717 45° Northeast 302 348 17,000  Level Boston Center
Thu 06:19:14 PM 42.7542 -72.0922 43° Northeast 302 348 17,000  Level Boston Center
Thu 06:20:14 PM 42.8164 -72.0128 43° Northeast 302 348 17,000  Level Boston Center
Thu 06:21:13 PM 42.8806 -71.9272 44° Northeast 302 348 17,000  Level Boston Center
Thu 06:22:15 PM 42.9408 -71.8475 44° Northeast 302 348 17,000  Level Boston Center
Thu 06:23:15 PM 43.0028 -71.7672 43° Northeast 302 348 17,000  Level Boston Center
Thu 06:24:16 PM 43.0647 -71.6814 45° Northeast 302 348 17,000  Level Boston Center
Thu 06:25:16 PM 43.1267 -71.6008 43° Northeast 302 348 17,000  Level Boston Center
Thu 06:26:14 PM 43.1886 -71.5175 44° Northeast 302 348 17,000 -50 Level Boston Center
Thu 06:27:15 PM 43.2483 -71.4367 45° Northeast 302 348 16,900 -843 Descending Boston Center
Thu 06:28:15 PM 43.3061 -71.3558 45° Northeast 307 353 15,300 -1,700 Descending Boston Center
Thu 06:29:15 PM 43.3719 -71.2692 44° Northeast 320 368 13,500 -1,815 Descending Boston Center
Thu 06:30:14 PM 43.4417 -71.1733 45° Northeast 320 368 11,700 -1,250 Descending Boston Center
Thu 06:31:15 PM 43.4803 -71.0839 59° Northeast 309 356 11,000 -738 Descending Boston Center
Thu 06:32:16 PM 43.5100 -70.9686 70° East 288 331 10,200 -1,041 Descending Boston Center
Thu 06:33:16 PM 43.5358 -70.8678 71° East 300 345 8,900 -1,424 Descending Boston Center
Thu 06:34:14 PM 43.5342 -70.7475 91° East 300 345 7,400 -1,513 Descending Boston Center
Thu 06:35:15 PM 43.5300 -70.6244 93° East 295 339 5,900 -1,587 Descending Boston Center
Thu 06:36:15 PM 43.5494 -70.5381 73° East 270 311 4,200 -1,815 Descending Boston Center
Thu 06:37:14 PM 43.5750 -70.4397 70° East 248 285 2,300 -1,261 Descending Boston Center
Thu 06:38:14 PM 43.5944 -70.3675 70° East 227 261 1,700 -545 Descending Boston Center
Thu 06:39:15 PM 43.6056 -70.2925 78° East 188 216 1,200 -492 Descending Boston Center
Thu 06:40:16 PM 43.6344 -70.2742 25° Northeast 133 153 700 -496 Descending Boston Center
Thu 06:41:16 PM 43.6575 -70.2850 341° North 81 93 200 5,282 Descending Boston Center
Thu 06:42:13 PM 43.6783 -70.2756 18° North 81 93 11,000 5,492 Climbing Boston Center
Thu 06:43:14 PM 43.6989 -70.2692 13° North 81 93 11,000  Level Boston Center
Thu 06:45:00 PM 43.6456 -70.3086 216° Southwest  Level Estimated
Thu 06:52:00 PM 43.6456 -70.3086 216° Southwest  Level Estimated
Thu 06:53:00 PM 43.6456 -70.3086 216° Southwest  Level Estimated
Thu 06:54:00 PM 43.6456 -70.3086 216° Southwest  Level Estimated
Thu 06:55:00 PM 43.6456 -70.3086 216° Southwest  Level Estimated

Login

Don't have an account? Register now (free) for customized features, flight alerts, and more!